Time;durP1;ratioP1;P1;durP2;ratioP2;P2;SDS_P1;SDS_P2;PMS_P1;PMS_P2;Temp;Humidity;BMP_temperature;BMP_pressure;BME280_temperature;BME280_humidity;BME280_pressure;Samples;Min_cycle;Max_cycle;Signal;HPM_P1;HPM_P2
2022/08/31 00:06:02;;;;;;;2.17;1.02;;;17.90;52.00;;;;;;4992180;28;20508;-66
2022/08/31 00:08:29;;;;;;;1.55;0.88;;;17.90;51.90;;;;;;4973549;28;20125;-66
2022/08/31 00:10:55;;;;;;;1.15;0.52;;;17.90;51.70;;;;;;4975646;28;20093;-66
2022/08/31 00:13:22;;;;;;;1.38;0.68;;;17.90;51.80;;;;;;4985749;28;20039;-66
2022/08/31 00:15:48;;;;;;;1.95;0.60;;;17.90;51.80;;;;;;4994075;28;20046;-66
2022/08/31 00:18:14;;;;;;;0.95;0.60;;;17.90;51.70;;;;;;4984731;28;20050;-66
2022/08/31 00:20:41;;;;;;;1.05;0.70;;;17.90;51.80;;;;;;4987717;28;20377;-66
2022/08/31 00:23:09;;;;;;;1.85;0.50;;;17.90;51.70;;;;;;4975360;28;20043;-66
2022/08/31 00:25:37;;;;;;;1.92;0.70;;;17.90;51.70;;;;;;4975301;28;20042;-66
2022/08/31 00:28:04;;;;;;;2.15;0.50;;;17.80;51.50;;;;;;4990545;28;20038;-66
2022/08/31 00:30:30;;;;;;;2.58;1.02;;;17.80;51.50;;;;;;4974545;28;20031;-66
2022/08/31 00:32:56;;;;;;;1.60;0.60;;;17.80;51.80;;;;;;4975255;28;20498;-66
2022/08/31 00:35:23;;;;;;;2.15;0.60;;;17.80;51.40;;;;;;4974134;28;20051;-66
2022/08/31 00:37:48;;;;;;;1.58;0.68;;;17.80;51.40;;;;;;4958167;28;20538;-66
2022/08/31 00:40:14;;;;;;;2.13;0.60;;;17.80;51.40;;;;;;5006600;28;20054;-66
2022/08/31 00:42:40;;;;;;;1.50;0.50;;;17.80;51.50;;;;;;4974899;28;20093;-66
2022/08/31 00:45:08;;;;;;;0.93;0.47;;;17.80;51.30;;;;;;4973822;28;20509;-66
2022/08/31 00:47:34;;;;;;;0.95;0.47;;;17.80;51.00;;;;;;4975426;28;20398;-66
2022/08/31 00:50:01;;;;;;;1.33;0.40;;;17.80;50.60;;;;;;5008235;28;20049;-66
2022/08/31 00:52:31;;;;;;;1.38;0.47;;;17.70;50.30;;;;;;4974875;28;20047;-66
2022/08/31 00:55:06;;;;;;;1.92;0.43;;;17.70;50.10;;;;;;4992645;28;20061;-66
2022/08/31 00:57:35;;;;;;;1.40;0.63;;;17.70;50.20;;;;;;4992073;28;20100;-66
2022/08/31 01:00:06;;;;;;;1.58;0.55;;;17.70;50.30;;;;;;4992877;28;20074;-66
2022/08/31 01:02:32;;;;;;;0.50;0.32;;;17.60;50.20;;;;;;4991029;28;20046;-66
2022/08/31 01:04:57;;;;;;;1.75;0.40;;;17.60;50.30;;;;;;4992094;28;20058;-66
2022/08/31 01:07:23;;;;;;;1.17;0.40;;;17.60;50.40;;;;;;4992050;28;20072;-66
2022/08/31 01:09:49;;;;;;;0.50;0.30;;;17.60;50.40;;;;;;4992534;28;20419;-66
2022/08/31 01:12:15;;;;;;;0.70;0.40;;;17.60;50.00;;;;;;4989931;28;20126;-66
2022/08/31 01:14:42;;;;;;;0.80;0.63;;;17.60;50.10;;;;;;4991363;28;20478;-66
2022/08/31 01:17:07;;;;;;;2.08;0.77;;;17.50;50.00;;;;;;4987036;28;20475;-66
2022/08/31 01:19:48;;;;;;;0.82;0.38;;;17.50;50.00;;;;;;4986800;28;20048;-66
2022/08/31 01:22:48;;;;;;;1.02;0.47;;;17.50;49.90;;;;;;4976624;28;20423;-66
2022/08/31 01:25:14;;;;;;;0.75;0.50;;;17.60;49.90;;;;;;4956880;28;20113;-66
2022/08/31 01:27:40;;;;;;;0.60;0.40;;;17.50;49.90;;;;;;4974409;28;20097;-66
2022/08/31 01:30:09;;;;;;;1.15;0.40;;;17.50;49.70;;;;;;4989188;28;20426;-66
2022/08/31 01:32:35;;;;;;;0.80;0.50;;;17.50;49.30;;;;;;4976804;28;20030;-66
2022/08/31 01:35:01;;;;;;;0.43;0.30;;;17.50;49.20;;;;;;4993565;28;20406;-66
2022/08/31 01:37:27;;;;;;;1.45;0.38;;;17.50;49.10;;;;;;4980491;28;20051;-66
2022/08/31 01:39:53;;;;;;;0.88;0.40;;;17.50;48.90;;;;;;4988536;28;20050;-66
2022/08/31 01:42:19;;;;;;;3.28;0.30;;;17.40;48.90;;;;;;4980634;28;20051;-66
2022/08/31 01:44:44;;;;;;;1.52;0.50;;;17.40;48.90;;;;;;4993168;28;20046;-66
2022/08/31 01:47:10;;;;;;;1.30;0.45;;;17.40;48.60;;;;;;4991749;28;20053;-66
2022/08/31 01:49:36;;;;;;;2.28;0.32;;;17.30;48.60;;;;;;4989428;28;20038;-66
2022/08/31 01:52:03;;;;;;;0.38;0.22;;;17.30;48.60;;;;;;4972407;28;20042;-66
2022/08/31 01:54:29;;;;;;;1.85;0.50;;;17.30;48.80;;;;;;4966879;28;20049;-66
2022/08/31 01:56:55;;;;;;;0.77;0.40;;;17.30;49.10;;;;;;4976742;28;20050;-66
2022/08/31 01:59:22;;;;;;;0.70;0.40;;;17.20;49.50;;;;;;4972983;28;20046;-66
2022/08/31 02:01:53;;;;;;;1.55;0.50;;;17.20;49.50;;;;;;4973109;28;20450;-66
2022/08/31 02:04:22;;;;;;;1.65;0.50;;;17.30;49.50;;;;;;4975397;28;20074;-66
2022/08/31 02:06:52;;;;;;;1.23;0.30;;;17.20;49.30;;;;;;4985095;28;20046;-67
2022/08/31 02:09:18;;;;;;;0.47;0.30;;;17.20;48.90;;;;;;4976091;28;20038;-68
2022/08/31 02:11:44;;;;;;;1.00;0.32;;;17.20;49.10;;;;;;4993229;28;20430;-68
2022/08/31 02:14:10;;;;;;;0.30;0.20;;;17.20;49.40;;;;;;4989417;28;20027;-68
2022/08/31 02:16:36;;;;;;;0.38;0.30;;;17.20;49.80;;;;;;4988152;28;20494;-68
2022/08/31 02:19:03;;;;;;;1.58;0.40;;;17.20;50.10;;;;;;4980838;28;20038;-68
2022/08/31 02:21:29;;;;;;;1.58;0.40;;;17.20;50.10;;;;;;4991100;28;20074;-68
2022/08/31 02:23:55;;;;;;;0.82;0.35;;;17.20;49.60;;;;;;4981836;28;20078;-68
2022/08/31 02:26:21;;;;;;;1.60;0.30;;;17.20;49.90;;;;;;5004756;28;20057;-68
2022/08/31 02:28:47;;;;;;;0.65;0.40;;;17.20;49.50;;;;;;4981694;28;20042;-68
2022/08/31 02:31:12;;;;;;;0.50;0.30;;;17.20;49.60;;;;;;4992936;28;20031;-68
2022/08/31 02:33:38;;;;;;;0.63;0.32;;;17.20;49.70;;;;;;4991625;28;20483;-68
2022/08/31 02:36:04;;;;;;;0.85;0.40;;;17.20;49.90;;;;;;4990989;28;20096;-68
2022/08/31 02:38:32;;;;;;;0.65;0.32;;;17.20;49.90;;;;;;4991636;28;20061;-68
2022/08/31 02:40:57;;;;;;;1.02;0.22;;;17.20;49.80;;;;;;4989745;28;20096;-68
2022/08/31 02:43:23;;;;;;;2.00;0.65;;;17.10;49.90;;;;;;4989622;28;20121;-68
2022/08/31 02:45:49;;;;;;;0.60;0.40;;;17.20;50.10;;;;;;4978652;28;20132;-68
2022/08/31 02:48:14;;;;;;;0.77;0.45;;;17.10;50.10;;;;;;4962389;28;20398;-68
2022/08/31 02:50:43;;;;;;;0.65;0.30;;;17.10;50.00;;;;;;4979245;28;20041;-68
2022/08/31 02:53:11;;;;;;;0.73;0.20;;;17.10;50.10;;;;;;4995185;28;20197;-68
2022/08/31 02:55:37;;;;;;;0.80;0.40;;;17.10;49.90;;;;;;4982020;28;20134;-68
2022/08/31 02:58:04;;;;;;;0.60;0.50;;;17.10;50.10;;;;;;4995088;28;20180;-68
2022/08/31 03:00:33;;;;;;;0.90;0.50;;;17.10;50.20;;;;;;4993506;28;20057;-68
2022/08/31 03:02:59;;;;;;;0.55;0.40;;;17.10;50.30;;;;;;4987549;28;20058;-68
2022/08/31 03:05:25;;;;;;;1.15;0.47;;;17.00;50.30;;;;;;4987081;28;20042;-68
2022/08/31 03:07:51;;;;;;;0.85;0.45;;;17.00;50.40;;;;;;4994894;28;20497;-68
2022/08/31 03:10:19;;;;;;;0.73;0.50;;;16.90;50.40;;;;;;4986450;28;20038;-68
2022/08/31 03:12:45;;;;;;;0.95;0.50;;;17.00;50.60;;;;;;4982799;28;20483;-68
2022/08/31 03:15:11;;;;;;;1.73;0.70;;;16.90;50.60;;;;;;4993452;28;20048;-68
2022/08/31 03:17:36;;;;;;;0.68;0.60;;;16.90;50.50;;;;;;4994721;28;20437;-68
2022/08/31 03:20:04;;;;;;;1.85;0.50;;;16.90;50.60;;;;;;4978778;28;20073;-68
2022/08/31 03:22:32;;;;;;;0.50;0.40;;;16.90;50.70;;;;;;4975602;28;20046;-68
2022/08/31 03:24:57;;;;;;;1.65;0.60;;;16.90;50.80;;;;;;4977315;28;20043;-68
2022/08/31 03:27:24;;;;;;;0.77;0.47;;;16.80;50.80;;;;;;5010123;28;20387;-68
2022/08/31 03:29:52;;;;;;;1.83;0.60;;;16.80;51.00;;;;;;4973979;28;20039;-68
2022/08/31 03:32:18;;;;;;;1.00;0.77;;;16.80;51.00;;;;;;4980536;28;20088;-68
2022/08/31 03:34:44;;;;;;;1.58;0.65;;;16.80;50.80;;;;;;4983745;28;20047;-68
2022/08/31 03:37:10;;;;;;;0.90;0.70;;;16.70;50.60;;;;;;4976867;28;20065;-68
2022/08/31 03:39:36;;;;;;;2.13;0.70;;;16.70;50.60;;;;;;4978923;28;20487;-68
2022/08/31 03:42:05;;;;;;;0.47;0.40;;;16.60;50.80;;;;;;4989856;28;20042;-68
2022/08/31 03:44:31;;;;;;;1.00;0.50;;;16.60;50.80;;;;;;4985833;28;20413;-68
2022/08/31 03:46:57;;;;;;;1.92;0.70;;;16.60;51.00;;;;;;4995395;28;20049;-68
2022/08/31 03:49:23;;;;;;;1.23;0.60;;;16.50;51.10;;;;;;4976770;28;20045;-68
2022/08/31 03:51:49;;;;;;;0.90;0.55;;;16.50;51.20;;;;;;4989437;28;20043;-69
2022/08/31 03:54:14;;;;;;;1.15;0.63;;;16.50;51.30;;;;;;4985929;28;20487;-68
2022/08/31 03:56:40;;;;;;;1.08;0.63;;;16.40;51.30;;;;;;4976253;28;20050;-68
2022/08/31 03:59:06;;;;;;;0.88;0.60;;;16.40;51.30;;;;;;4990103;28;20054;-68
2022/08/31 04:01:35;;;;;;;1.10;0.52;;;16.40;51.40;;;;;;4992355;28;20486;-68
2022/08/31 04:04:01;;;;;;;1.02;0.77;;;16.30;51.50;;;;;;4991397;28;20060;-68
2022/08/31 04:06:28;;;;;;;1.63;0.70;;;16.30;51.50;;;;;;4993500;28;20085;-68
2022/08/31 04:08:54;;;;;;;1.20;0.50;;;16.30;51.40;;;;;;4977548;28;20046;-68
2022/08/31 04:11:20;;;;;;;1.25;0.63;;;16.20;51.50;;;;;;4983317;28;20047;-68
2022/08/31 04:13:46;;;;;;;0.98;0.60;;;16.20;51.60;;;;;;4990705;28;20030;-68
2022/08/31 04:16:16;;;;;;;0.82;0.60;;;16.20;51.60;;;;;;4974513;28;20562;-68
2022/08/31 04:18:43;;;;;;;0.73;0.40;;;16.20;51.70;;;;;;4987245;28;20038;-68
2022/08/31 04:21:17;;;;;;;0.70;0.30;;;16.10;51.70;;;;;;4984618;28;20126;-69
2022/08/31 04:23:42;;;;;;;0.70;0.30;;;16.10;51.90;;;;;;4976696;28;20053;-68
2022/08/31 04:26:23;;;;;;;3.17;0.77;;;16.00;51.90;;;;;;4992005;28;20046;-68
2022/08/31 04:28:50;;;;;;;1.30;0.60;;;16.00;51.90;;;;;;4986686;28;20070;-70
2022/08/31 04:31:17;;;;;;;1.65;0.40;;;15.90;51.90;;;;;;4980086;28;20041;-68
2022/08/31 04:33:43;;;;;;;2.72;0.60;;;16.00;52.20;;;;;;4992615;28;20049;-68
2022/08/31 04:36:13;;;;;;;1.30;0.40;;;15.90;52.30;;;;;;4993550;28;20074;-68
2022/08/31 04:38:41;;;;;;;1.73;0.60;;;15.90;52.30;;;;;;4989634;28;20058;-68
2022/08/31 04:41:09;;;;;;;0.25;0.25;;;15.90;52.40;;;;;;4978974;28;20471;-68
2022/08/31 04:43:36;;;;;;;1.50;0.77;;;15.90;52.50;;;;;;4992734;28;20042;-68
2022/08/31 04:46:07;;;;;;;2.20;0.73;;;15.80;52.50;;;;;;4974302;28;20125;-68
2022/08/31 04:48:34;;;;;;;0.50;0.40;;;15.80;52.60;;;;;;4994066;28;20085;-68
2022/08/31 04:51:05;;;;;;;1.05;0.43;;;15.80;52.70;;;;;;4974893;28;20041;-68
2022/08/31 04:53:32;;;;;;;0.88;0.40;;;15.80;52.80;;;;;;4983101;28;20039;-68
2022/08/31 04:55:57;;;;;;;1.65;0.50;;;15.70;52.80;;;;;;4976677;28;20437;-68
2022/08/31 04:58:23;;;;;;;1.08;0.60;;;15.70;52.90;;;;;;4993960;28;20042;-68
2022/08/31 05:00:51;;;;;;;2.08;0.40;;;15.70;53.00;;;;;;4989305;28;20046;-68
2022/08/31 05:03:17;;;;;;;1.33;0.52;;;15.70;53.10;;;;;;4978165;28;20062;-68
2022/08/31 05:05:45;;;;;;;2.00;0.45;;;15.70;53.20;;;;;;5006208;28;20430;-68
2022/08/31 05:08:11;;;;;;;1.45;0.50;;;15.70;53.30;;;;;;4989865;28;20117;-68
2022/08/31 05:10:39;;;;;;;0.95;0.50;;;15.60;53.30;;;;;;4980125;28;20118;-68
2022/08/31 05:13:05;;;;;;;1.42;0.50;;;15.60;53.50;;;;;;4983811;28;20045;-68
2022/08/31 05:15:32;;;;;;;2.08;0.82;;;15.60;53.60;;;;;;4993577;28;20398;-68
2022/08/31 05:17:58;;;;;;;1.00;0.60;;;15.50;53.70;;;;;;4992570;28;20049;-68
2022/08/31 05:20:24;;;;;;;2.20;0.60;;;15.50;53.90;;;;;;4966925;28;20054;-68
2022/08/31 05:22:50;;;;;;;2.03;0.77;;;15.50;54.00;;;;;;4981851;28;20134;-68
2022/08/31 05:25:15;;;;;;;1.95;0.50;;;15.40;54.10;;;;;;4979259;28;20125;-69
2022/08/31 05:27:41;;;;;;;2.22;0.50;;;15.40;54.20;;;;;;4988756;28;20038;-69
2022/08/31 05:30:08;;;;;;;3.08;0.70;;;15.40;54.40;;;;;;4988851;28;20074;-68
2022/08/31 05:32:33;;;;;;;1.42;0.68;;;15.40;54.50;;;;;;4990746;28;20052;-69
2022/08/31 05:34:59;;;;;;;0.60;0.40;;;15.30;54.70;;;;;;4992585;28;20042;-68
2022/08/31 05:37:25;;;;;;;1.60;0.50;;;15.30;54.70;;;;;;4977038;28;20046;-68
2022/08/31 05:39:51;;;;;;;1.88;0.60;;;15.30;54.90;;;;;;4969031;28;20053;-68
2022/08/31 05:42:19;;;;;;;2.22;0.55;;;15.30;55.00;;;;;;4981350;28;20042;-68
2022/08/31 05:44:45;;;;;;;0.80;0.45;;;15.30;55.20;;;;;;4987477;28;20038;-68
2022/08/31 05:47:11;;;;;;;1.10;0.47;;;15.30;55.40;;;;;;4994681;28;20707;-68
2022/08/31 05:49:37;;;;;;;2.13;0.50;;;15.30;55.50;;;;;;4991899;28;20450;-68
2022/08/31 05:52:06;;;;;;;3.08;0.52;;;15.20;55.50;;;;;;4990807;28;20963;-68
2022/08/31 05:54:33;;;;;;;1.10;0.63;;;15.20;55.60;;;;;;4994124;28;20042;-68
2022/08/31 05:57:00;;;;;;;1.77;0.73;;;15.20;55.80;;;;;;4984594;28;20053;-68
2022/08/31 05:59:25;;;;;;;1.17;0.60;;;15.20;55.90;;;;;;4988764;28;20038;-68
2022/08/31 06:01:51;;;;;;;2.85;0.55;;;15.20;56.00;;;;;;4990736;28;20096;-68
2022/08/31 06:04:17;;;;;;;1.33;0.80;;;15.30;56.30;;;;;;4991507;28;20129;-68
2022/08/31 06:06:43;;;;;;;2.10;0.70;;;15.30;56.50;;;;;;4979045;28;20049;-68
2022/08/31 06:09:08;;;;;;;1.88;0.57;;;15.40;56.70;;;;;;4991132;28;20446;-68
2022/08/31 06:11:36;;;;;;;2.60;0.88;;;15.60;56.70;;;;;;4989389;28;20045;-68
2022/08/31 06:14:04;;;;;;;1.52;0.70;;;15.80;56.60;;;;;;4989948;28;20450;-68
2022/08/31 06:16:31;;;;;;;4.35;0.98;;;16.10;56.30;;;;;;4981832;28;20041;-68
2022/08/31 06:18:57;;;;;;;1.65;0.40;;;16.40;56.40;;;;;;4981313;28;20046;-68
2022/08/31 06:21:27;;;;;;;3.22;0.85;;;16.70;55.60;;;;;;4987204;28;20458;-68
2022/08/31 06:23:56;;;;;;;1.50;0.60;;;17.00;54.90;;;;;;4977731;28;20054;-68
2022/08/31 06:26:24;;;;;;;1.60;0.60;;;17.30;54.50;;;;;;4991099;28;20066;-68
2022/08/31 06:28:51;;;;;;;2.63;0.70;;;17.50;54.00;;;;;;4985463;28;20046;-68
2022/08/31 06:31:29;;;;;;;1.73;0.70;;;17.70;53.80;;;;;;4979882;28;20070;-68
2022/08/31 06:33:55;;;;;;;2.67;0.70;;;17.90;53.30;;;;;;4983651;28;20074;-66
2022/08/31 06:36:24;;;;;;;2.38;0.57;;;18.30;53.10;;;;;;4978022;28;20212;-66
2022/08/31 06:38:51;;;;;;;1.67;0.45;;;18.50;52.60;;;;;;4987500;28;20069;-66
2022/08/31 06:41:24;;;;;;;1.45;0.52;;;18.80;52.10;;;;;;4995078;28;20046;-66
2022/08/31 06:43:50;;;;;;;2.20;0.53;;;19.00;51.80;;;;;;4994056;28;20050;-66
2022/08/31 06:46:17;;;;;;;2.10;0.63;;;19.20;51.20;;;;;;4994565;28;20042;-66
2022/08/31 06:48:43;;;;;;;1.65;0.70;;;19.40;50.90;;;;;;4994108;28;20506;-66
2022/08/31 06:51:10;;;;;;;1.45;0.60;;;19.50;50.50;;;;;;4994946;28;20046;-66
2022/08/31 06:53:41;;;;;;;1.77;0.70;;;19.60;50.40;;;;;;4993850;28;20034;-66
2022/08/31 06:56:11;;;;;;;3.83;0.60;;;19.70;50.10;;;;;;4995084;28;20042;-66
2022/08/31 06:58:37;;;;;;;3.42;0.82;;;19.80;50.10;;;;;;4983153;28;20053;-66
2022/08/31 07:01:12;;;;;;;4.13;0.73;;;19.90;50.00;;;;;;4990802;28;20046;-66
2022/08/31 07:03:40;;;;;;;3.60;0.50;;;20.20;49.80;;;;;;4979183;28;20081;-66
2022/08/31 07:06:16;;;;;;;2.25;0.85;;;20.40;49.70;;;;;;4996309;28;20070;-66
2022/08/31 07:08:43;;;;;;;2.38;0.60;;;20.60;49.20;;;;;;4983490;28;20042;-66
2022/08/31 07:11:11;;;;;;;3.10;1.05;;;20.70;48.60;;;;;;4975935;28;20078;-66
2022/08/31 07:13:37;;;;;;;2.00;0.65;;;20.70;48.30;;;;;;4983964;28;20035;-66
2022/08/31 07:16:05;;;;;;;1.00;0.73;;;20.70;48.50;;;;;;4982322;28;20405;-67
2022/08/31 07:18:31;;;;;;;1.90;0.60;;;20.80;48.30;;;;;;4994730;28;20042;-67
2022/08/31 07:21:16;;;;;;;1.58;0.95;;;20.90;48.10;;;;;;4994644;28;20061;-67
2022/08/31 07:23:44;;;;;;;2.22;0.90;;;21.00;47.90;;;;;;4976622;28;20125;-67
2022/08/31 07:26:12;;;;;;;3.67;0.93;;;21.00;47.80;;;;;;4975070;28;20046;-67
2022/08/31 07:28:42;;;;;;;2.03;0.70;;;21.00;47.70;;;;;;4993517;28;20049;-66
2022/08/31 07:31:09;;;;;;;2.83;0.90;;;21.00;47.40;;;;;;4978007;28;20097;-67
2022/08/31 07:33:38;;;;;;;1.50;0.60;;;20.90;47.70;;;;;;4992863;28;20046;-67
2022/08/31 07:36:10;;;;;;;3.85;1.08;;;20.90;47.80;;;;;;4994620;28;20057;-67
2022/08/31 07:44:08;;;;;;;2.67;0.80;;;20.80;47.60;;;;;;4982416;28;20050;-67
2022/08/31 07:46:34;;;;;;;1.58;0.80;;;20.80;47.70;;;;;;4983681;28;20093;-67
2022/08/31 07:49:00;;;;;;;1.65;0.80;;;20.70;47.80;;;;;;4959204;28;20060;-67
2022/08/31 07:51:26;;;;;;;1.25;0.68;;;20.70;48.20;;;;;;4992914;28;20050;-67
2022/08/31 07:53:53;;;;;;;2.47;1.15;;;20.70;48.10;;;;;;4976854;28;20034;-67
2022/08/31 07:56:20;;;;;;;2.30;1.00;;;20.60;47.70;;;;;;4995354;28;20109;-67
2022/08/31 07:58:49;;;;;;;1.90;0.68;;;20.70;48.00;;;;;;4975693;28;20070;-67
2022/08/31 08:01:16;;;;;;;2.22;0.85;;;20.80;47.20;;;;;;4976016;28;20114;-68
2022/08/31 08:03:45;;;;;;;3.63;0.60;;;20.80;46.00;;;;;;4990078;28;20708;-67
2022/08/31 08:06:14;;;;;;;2.38;0.60;;;20.80;45.50;;;;;;4993841;28;20046;-67
2022/08/31 08:08:43;;;;;;;3.20;0.93;;;20.80;45.40;;;;;;4993670;28;20509;-66
2022/08/31 08:11:20;;;;;;;1.38;0.50;;;20.80;44.90;;;;;;4980026;28;20038;-67
2022/08/31 08:13:47;;;;;;;2.83;0.60;;;20.80;44.10;;;;;;4975864;28;20494;-72
2022/08/31 08:16:14;;;;;;;1.75;0.57;;;20.80;44.20;;;;;;4980883;28;20100;-67
2022/08/31 08:18:40;;;;;;;1.10;0.50;;;20.80;44.40;;;;;;4981608;28;20118;-67
2022/08/31 08:21:06;;;;;;;2.03;0.63;;;20.80;44.60;;;;;;4975789;28;20149;-67
2022/08/31 08:23:32;;;;;;;2.40;0.70;;;20.80;44.40;;;;;;4974445;28;20490;-67
2022/08/31 08:26:00;;;;;;;1.52;0.50;;;20.90;44.60;;;;;;4991091;28;20046;-69
2022/08/31 08:28:28;;;;;;;2.33;0.70;;;20.90;44.50;;;;;;4992995;28;20050;-69
2022/08/31 08:30:59;;;;;;;2.67;0.60;;;21.00;45.20;;;;;;4989956;28;20053;-69
2022/08/31 08:33:27;;;;;;;5.82;1.05;;;21.10;45.30;;;;;;4978548;28;20042;-69
2022/08/31 08:35:59;;;;;;;1.95;0.65;;;21.20;45.40;;;;;;4980905;28;20554;-69
2022/08/31 08:38:29;;;;;;;1.70;0.57;;;21.30;45.50;;;;;;4989787;28;20529;-70
2022/08/31 08:40:59;;;;;;;1.38;0.70;;;21.40;45.50;;;;;;4974061;28;20046;-70
2022/08/31 08:43:32;;;;;;;4.13;0.77;;;21.40;45.00;;;;;;4958473;28;20038;-70
2022/08/31 08:46:01;;;;;;;1.75;0.70;;;21.40;44.50;;;;;;4974909;28;20046;-70
2022/08/31 08:48:30;;;;;;;3.13;0.82;;;21.40;44.60;;;;;;4986855;28;20055;-70
2022/08/31 08:50:57;;;;;;;3.17;0.70;;;21.40;45.00;;;;;;4992498;28;20042;-70
2022/08/31 08:53:27;;;;;;;2.72;0.50;;;21.50;45.30;;;;;;4993668;28;20078;-70
2022/08/31 08:55:54;;;;;;;1.73;0.40;;;21.60;45.80;;;;;;4992486;28;20054;-70
2022/08/31 08:58:20;;;;;;;1.75;0.40;;;21.60;45.80;;;;;;4991467;28;20133;-70
2022/08/31 09:00:52;;;;;;;1.98;0.57;;;21.70;45.20;;;;;;4980302;28;20051;-70
2022/08/31 09:03:44;;;;;;;4.22;1.27;;;21.90;45.20;;;;;;4991915;28;20093;-70
2022/08/31 09:06:17;;;;;;;1.58;0.70;;;22.00;44.00;;;;;;4989709;28;20121;-69
2022/08/31 09:09:16;;;;;;;4.07;1.00;;;22.10;44.30;;;;;;4964774;28;20052;-69
2022/08/31 09:12:03;;;;;;;2.53;0.45;;;22.10;43.30;;;;;;4973411;28;20049;-69
2022/08/31 09:14:35;;;;;;;2.30;0.60;;;22.20;43.10;;;;;;4973695;28;20057;-69
2022/08/31 09:17:16;;;;;;;3.22;0.60;;;22.20;43.20;;;;;;4992473;28;20464;-69
2022/08/31 09:20:00;;;;;;;3.10;1.10;;;22.30;43.00;;;;;;4990672;28;20050;-69
2022/08/31 09:22:39;;;;;;;4.47;0.80;;;22.40;43.10;;;;;;4974284;28;20509;-69
2022/08/31 09:25:05;;;;;;;2.40;0.60;;;22.40;42.40;;;;;;4983449;28;20121;-69
2022/08/31 09:27:56;;;;;;;3.10;0.68;;;22.50;42.70;;;;;;4993681;28;20050;-69
2022/08/31 09:30:41;;;;;;;3.05;0.82;;;22.60;41.90;;;;;;4990401;28;20495;-69
2022/08/31 09:33:18;;;;;;;1.35;0.60;;;22.60;41.90;;;;;;4992075;28;20046;-69
2022/08/31 09:35:45;;;;;;;1.23;0.50;;;22.60;41.60;;;;;;4976927;28;20053;-69
2022/08/31 09:38:36;;;;;;;1.42;0.60;;;22.60;41.70;;;;;;4973965;28;20062;-70
2022/08/31 09:41:07;;;;;;;3.83;0.90;;;22.70;41.20;;;;;;4973194;28;20051;-69
2022/08/31 09:43:37;;;;;;;1.65;0.60;;;22.70;41.10;;;;;;4975466;28;20101;-69
2022/08/31 09:46:10;;;;;;;1.85;0.60;;;22.60;41.10;;;;;;4973177;28;20450;-69
2022/08/31 09:48:55;;;;;;;1.92;0.85;;;22.50;40.70;;;;;;4974073;28;20546;-69
2022/08/31 09:51:33;;;;;;;1.98;0.50;;;22.50;40.90;;;;;;4956985;28;20065;-69
2022/08/31 09:56:54;;;;;;;1.52;0.38;;;22.50;40.80;;;;;;4987299;28;20057;-69
2022/08/31 09:59:42;;;;;;;2.00;0.50;;;22.40;41.20;;;;;;4974452;28;20055;-69
2022/08/31 10:02:08;;;;;;;2.78;0.60;;;22.40;40.90;;;;;;4971892;28;20042;-69
2022/08/31 10:04:46;;;;;;;3.10;0.80;;;22.40;40.90;;;;;;4984788;28;20046;-69
2022/08/31 10:07:12;;;;;;;2.17;0.70;;;22.40;40.20;;;;;;4991664;28;20046;-69
2022/08/31 10:09:47;;;;;;;2.05;0.40;;;22.40;40.30;;;;;;4989441;28;20050;-69
2022/08/31 10:12:25;;;;;;;1.83;0.60;;;22.40;41.30;;;;;;4975385;28;20113;-69
2022/08/31 10:15:07;;;;;;;1.58;0.45;;;22.50;41.30;;;;;;4991532;28;20049;-69
2022/08/31 10:17:44;;;;;;;2.00;0.57;;;22.50;42.00;;;;;;4986127;28;20042;-69
2022/08/31 10:20:36;;;;;;;2.60;0.75;;;22.60;41.00;;;;;;4992822;28;20124;-69
2022/08/31 10:23:36;;;;;;;3.60;0.50;;;22.70;41.40;;;;;;4984943;28;20050;-70
2022/08/31 10:26:30;;;;;;;3.25;0.40;;;22.90;40.40;;;;;;4989107;28;20046;-69
2022/08/31 10:28:58;;;;;;;0.50;0.38;;;22.90;40.30;;;;;;4990040;28;20045;-69
2022/08/31 10:31:37;;;;;;;3.22;0.50;;;22.90;40.20;;;;;;4993025;28;20045;-69
2022/08/31 10:37:06;;;;;;;1.15;0.50;;;23.00;39.50;;;;;;4972748;28;20101;-69
2022/08/31 10:39:43;;;;;;;3.58;0.47;;;23.10;39.30;;;;;;4973490;28;20089;-67
2022/08/31 10:42:17;;;;;;;2.42;0.40;;;23.20;38.50;;;;;;4972544;28;20062;-66
2022/08/31 10:44:55;;;;;;;;;;;23.30;38.40;;;;;;4978407;28;20046;-66
2022/08/31 10:47:22;;;;;;;2.95;0.60;;;23.20;38.20;;;;;;4991312;28;20366;-66
2022/08/31 10:49:59;;;;;;;1.55;0.50;;;23.20;38.60;;;;;;4988934;28;20114;-66
2022/08/31 10:52:41;;;;;;;1.00;0.50;;;23.30;38.00;;;;;;4991171;28;20042;-66
2022/08/31 10:55:22;;;;;;;1.88;0.63;;;23.20;38.10;;;;;;4982244;28;20379;-66
2022/08/31 10:57:58;;;;;;;1.52;0.30;;;23.20;38.40;;;;;;4972627;28;20039;-66
2022/08/31 11:00:44;;;;;;;0.82;0.50;;;23.20;38.10;;;;;;4974893;28;20042;-66
2022/08/31 11:03:34;;;;;;;2.15;0.30;;;23.20;38.50;;;;;;4975884;28;20046;-66
2022/08/31 11:06:08;;;;;;;2.15;0.57;;;23.30;38.40;;;;;;4977132;28;20495;-66
2022/08/31 11:08:48;;;;;;;2.10;0.50;;;23.30;38.40;;;;;;4977045;28;20042;-66
2022/08/31 11:11:40;;;;;;;0.80;0.40;;;23.40;38.10;;;;;;4975990;28;20098;-66
2022/08/31 11:14:30;;;;;;;1.30;0.35;;;23.40;38.00;;;;;;4975965;28;20105;-66
2022/08/31 11:17:18;;;;;;;1.10;0.47;;;23.40;37.70;;;;;;4994770;28;20054;-66
2022/08/31 11:19:55;;;;;;;1.40;0.55;;;23.40;37.80;;;;;;4993432;28;20061;-66
2022/08/31 11:22:48;;;;;;;4.32;0.80;;;23.40;37.60;;;;;;4992507;28;20491;-66
2022/08/31 11:25:32;;;;;;;0.52;0.30;;;23.50;37.80;;;;;;4975689;28;20061;-66
2022/08/31 11:28:27;;;;;;;1.58;0.40;;;23.50;38.50;;;;;;4990169;28;20125;-66
2022/08/31 11:30:54;;;;;;;3.33;0.50;;;23.50;38.10;;;;;;4975646;28;20074;-66
2022/08/31 11:33:26;;;;;;;1.52;0.50;;;23.60;38.10;;;;;;4976467;28;20558;-66
2022/08/31 11:36:07;;;;;;;2.90;0.60;;;23.60;37.90;;;;;;4975296;28;20498;-66
2022/08/31 11:39:09;;;;;;;2.50;0.55;;;23.60;38.90;;;;;;4992270;28;20093;-66
2022/08/31 11:41:49;;;;;;;1.23;0.43;;;23.70;38.90;;;;;;4975015;28;20054;-66
2022/08/31 11:44:35;;;;;;;1.50;0.45;;;23.80;38.60;;;;;;4977998;28;20061;-67
2022/08/31 11:47:24;;;;;;;1.35;0.57;;;23.80;38.30;;;;;;4974896;28;20130;-66
2022/08/31 11:49:54;;;;;;;2.05;0.45;;;23.90;37.90;;;;;;4975964;28;20125;-66
2022/08/31 11:52:21;;;;;;;2.60;0.70;;;23.90;37.90;;;;;;4990818;28;20050;-66
2022/08/31 11:54:49;;;;;;;3.22;0.52;;;24.00;37.90;;;;;;4974996;28;20078;-66
2022/08/31 11:57:20;;;;;;;2.33;0.80;;;24.00;37.20;;;;;;4984557;28;20058;-66
2022/08/31 11:59:47;;;;;;;2.63;0.50;;;24.10;37.20;;;;;;4976404;28;20049;-66
2022/08/31 12:02:19;;;;;;;1.20;0.52;;;24.10;36.90;;;;;;4993951;28;20046;-66
2022/08/31 12:04:46;;;;;;;2.38;0.50;;;24.10;37.20;;;;;;4980020;28;20494;-66
2022/08/31 12:07:29;;;;;;;0.90;0.40;;;24.20;37.50;;;;;;4958579;28;20046;-66
2022/08/31 12:10:35;;;;;;;0.95;0.40;;;24.30;37.60;;;;;;4975780;28;20053;-66
2022/08/31 12:13:24;;;;;;;2.10;0.55;;;24.30;36.90;;;;;;4973707;28;20039;-67
2022/08/31 12:16:28;;;;;;;1.40;0.68;;;24.40;36.80;;;;;;4988126;28;20494;-66
2022/08/31 12:19:00;;;;;;;0.73;0.40;;;24.30;35.00;;;;;;4946205;28;20071;-66
2022/08/31 12:24:57;;;;;;;2.47;0.50;;;24.20;35.60;;;;;;4990568;28;20398;-66
2022/08/31 12:27:28;;;;;;;0.73;0.40;;;24.10;35.30;;;;;;4975502;28;20046;-67
2022/08/31 12:30:16;;;;;;;1.25;0.50;;;24.00;35.70;;;;;;4975383;28;20109;-66
2022/08/31 12:32:44;;;;;;;2.13;0.50;;;23.90;35.80;;;;;;4979766;28;20161;-66
2022/08/31 12:35:10;;;;;;;3.38;0.85;;;23.80;35.40;;;;;;4984228;28;20046;-66
2022/08/31 12:37:37;;;;;;;3.33;0.60;;;23.80;35.20;;;;;;4993046;28;20069;-66
2022/08/31 12:40:23;;;;;;;2.28;0.30;;;23.80;35.00;;;;;;4992081;28;20410;-66
2022/08/31 12:43:07;;;;;;;4.10;0.57;;;23.70;35.40;;;;;;4989114;28;20113;-66
2022/08/31 12:45:39;;;;;;;;;;;23.70;36.10;;;;;;4974352;28;20069;-66
2022/08/31 12:48:23;;;;;;;0.70;0.30;;;23.70;36.60;;;;;;4989989;28;19918;-66
2022/08/31 12:51:23;;;;;;;1.20;0.50;;;23.80;36.70;;;;;;4976873;28;20108;-67
2022/08/31 12:54:31;;;;;;;2.08;0.40;;;23.80;35.20;;;;;;4950513;28;20090;-66
2022/08/31 12:57:33;;;;;;;1.08;0.60;;;23.80;35.50;;;;;;4980385;28;20108;-66
2022/08/31 13:00:25;;;;;;;1.55;0.63;;;23.80;36.00;;;;;;4991638;28;20038;-66
2022/08/31 13:03:04;;;;;;;2.15;0.32;;;23.80;35.70;;;;;;4980245;28;20042;-66
2022/08/31 13:05:33;;;;;;;1.58;0.32;;;23.80;36.10;;;;;;4985756;28;20051;-66
2022/08/31 13:07:59;;;;;;;0.95;0.30;;;23.80;35.70;;;;;;4978251;28;20047;-66
2022/08/31 13:10:36;;;;;;;2.50;0.40;;;23.80;35.70;;;;;;4975894;28;20490;-67
2022/08/31 13:13:05;;;;;;;2.92;0.50;;;23.80;35.80;;;;;;4981032;28;20043;-66
2022/08/31 13:15:38;;;;;;;1.40;0.40;;;23.90;35.30;;;;;;4981395;28;20054;-66
2022/08/31 13:18:22;;;;;;;1.25;0.43;;;23.80;35.20;;;;;;4982375;28;20088;-67
2022/08/31 13:20:53;;;;;;;1.05;0.45;;;23.80;34.70;;;;;;4976100;28;20034;-67
2022/08/31 13:23:28;;;;;;;1.70;0.50;;;23.70;34.60;;;;;;4993627;28;20042;-67
2022/08/31 13:26:19;;;;;;;2.17;0.65;;;23.70;35.30;;;;;;4979502;28;20684;-67
2022/08/31 13:29:07;;;;;;;1.77;0.30;;;23.80;35.80;;;;;;4974101;28;20074;-67